createdAt,value
2018-04-14T00:00:11.726Z,100240.29
2018-04-14T00:02:39.160Z,100240.86
2018-04-14T00:05:06.591Z,100246.97
2018-04-14T00:07:34.257Z,100247.70
2018-04-14T00:10:01.683Z,100255.25
2018-04-14T00:12:29.111Z,100255.38
2018-04-14T00:14:56.532Z,100260.28
2018-04-14T00:17:23.972Z,100259.45
2018-04-14T00:19:51.412Z,100256.86
2018-04-14T00:22:18.820Z,100258.82
2018-04-14T00:24:46.260Z,100255.83
2018-04-14T00:27:13.668Z,100257.84
2018-04-14T00:29:41.100Z,100259.53
2018-04-14T00:32:08.527Z,100266.38
2018-04-14T00:34:35.956Z,100262.22
2018-04-14T00:37:03.384Z,100259.62
2018-04-14T00:39:30.953Z,100255.86
2018-04-14T00:41:58.371Z,100255.86
2018-04-14T00:44:25.795Z,100259.55
2018-04-14T00:46:53.215Z,100258.17
2018-04-14T00:49:20.624Z,100258.55
2018-04-14T00:51:48.058Z,100265.28
2018-04-14T00:54:15.468Z,100269.78
2018-04-14T00:56:42.896Z,100269.52
2018-04-14T00:59:10.372Z,100263.17
2018-04-14T01:01:37.799Z,100268.88
2018-04-14T01:04:05.221Z,100272.59
2018-04-14T01:06:37.539Z,100273.91
2018-04-14T01:09:05.884Z,100282.58
2018-04-14T01:11:33.375Z,100279.99
2018-04-14T01:14:00.789Z,100282.27
2018-04-14T01:16:28.468Z,100281.84
2018-04-14T01:18:55.890Z,100284.98
2018-04-14T01:21:23.307Z,100288.90
2018-04-14T01:23:50.732Z,100286.72
2018-04-14T01:26:18.157Z,100281.97
2018-04-14T01:28:45.588Z,100285.45
2018-04-14T01:31:13.018Z,100274.75
2018-04-14T01:33:40.429Z,100277.84
2018-04-14T01:36:07.862Z,100275.30
2018-04-14T01:38:35.292Z,100279.22
2018-04-14T01:41:02.710Z,100281.78
2018-04-14T01:43:30.147Z,100285.70
2018-04-14T01:45:57.576Z,100288.03
2018-04-14T01:48:24.987Z,100284.61
2018-04-14T01:50:52.432Z,100290.53
2018-04-14T01:53:19.849Z,100293.47
2018-04-14T01:55:47.268Z,100300.95
2018-04-14T01:58:14.721Z,100297.20
2018-04-14T02:00:43.148Z,100302.33
2018-04-14T02:03:10.584Z,100298.19
2018-04-14T02:05:38.005Z,100299.25
2018-04-14T02:08:05.439Z,100300.20
2018-04-14T02:10:32.875Z,100312.02
2018-04-14T02:13:00.316Z,100301.95
2018-04-14T02:15:27.728Z,100306.90
2018-04-14T02:17:55.156Z,100306.15
2018-04-14T02:20:22.585Z,100302.75
2018-04-14T02:22:50.016Z,100306.95
2018-04-14T02:25:17.429Z,100307.56
2018-04-14T02:27:44.991Z,100308.68
2018-04-14T02:30:12.417Z,100309.72
2018-04-14T02:32:39.832Z,100309.52
2018-04-14T02:35:07.436Z,100314.67
2018-04-14T02:37:34.849Z,100310.47
2018-04-14T02:40:02.277Z,100318.34
2018-04-14T02:42:29.730Z,100317.37
2018-04-14T02:44:57.148Z,100314.27
2018-04-14T02:47:24.576Z,100319.98
2018-04-14T02:49:51.994Z,100321.74
2018-04-14T02:52:19.477Z,100320.70
2018-04-14T02:54:46.852Z,100314.98
2018-04-14T02:57:14.276Z,100308.86
2018-04-14T02:59:41.709Z,100316.97
2018-04-14T03:02:09.239Z,100314.01
2018-04-14T03:04:36.656Z,100318.27
2018-04-14T03:07:04.081Z,100317.95
2018-04-14T03:09:31.516Z,100316.16
2018-04-14T03:11:59.045Z,100304.86
2018-04-14T03:14:26.467Z,100315.16
2018-04-14T03:16:53.897Z,100320.12
2018-04-14T03:19:21.491Z,100318.98
2018-04-14T03:21:48.909Z,100318.34
2018-04-14T03:24:16.331Z,100317.20
2018-04-14T03:26:43.755Z,100323.73
2018-04-14T03:29:11.183Z,100317.59
2018-04-14T03:31:38.592Z,100326.09
2018-04-14T03:34:06.032Z,100320.94
2018-04-14T03:36:33.455Z,100333.22
2018-04-14T03:39:00.884Z,100334.59
2018-04-14T03:41:28.299Z,100337.94
2018-04-14T03:43:55.872Z,100335.00
2018-04-14T03:46:23.287Z,100332.64
2018-04-14T03:48:50.709Z,100330.45
2018-04-14T03:51:18.135Z,100339.72
2018-04-14T03:53:45.577Z,100341.73
2018-04-14T03:56:13.008Z,100342.89
2018-04-14T03:58:40.428Z,100348.01
2018-04-14T04:01:07.847Z,100344.96
2018-04-14T04:03:35.256Z,100348.55
2018-04-14T04:06:02.976Z,100354.66
2018-04-14T04:08:30.403Z,100355.80
2018-04-14T04:10:57.812Z,100359.34
2018-04-14T04:13:25.233Z,100355.60
2018-04-14T04:15:52.654Z,100359.95
2018-04-14T04:18:32.099Z,100364.09
2018-04-14T04:21:12.084Z,100368.46
2018-04-14T04:23:51.288Z,100373.81
2018-04-14T04:26:18.692Z,100372.61
2018-04-14T04:28:46.124Z,100373.81
2018-04-14T04:31:13.536Z,100371.63
2018-04-14T04:33:40.959Z,100370.65
2018-04-14T04:36:08.388Z,100368.29
2018-04-14T04:38:35.818Z,100375.02
2018-04-14T04:41:03.240Z,100374.53
2018-04-14T04:43:30.643Z,100377.70
2018-04-14T04:45:58.216Z,100384.20
2018-04-14T04:48:25.635Z,100387.36
2018-04-14T04:50:53.040Z,100389.72
2018-04-14T04:53:20.473Z,100390.44
2018-04-14T04:55:47.887Z,100397.57
2018-04-14T04:58:15.299Z,100393.05
2018-04-14T05:00:42.725Z,100400.59
2018-04-14T05:03:10.154Z,100404.13
2018-04-14T05:05:37.588Z,100406.95
2018-04-14T05:08:05.082Z,100405.03
2018-04-14T05:10:32.488Z,100406.89
2018-04-14T05:12:59.916Z,100407.84
2018-04-14T05:15:27.324Z,100420.27
2018-04-14T05:17:54.754Z,100423.09
2018-04-14T05:20:22.172Z,100422.86
2018-04-14T05:22:49.603Z,100428.95
2018-04-14T05:25:17.025Z,100435.45
2018-04-14T05:27:44.437Z,100436.64
2018-04-14T05:30:11.857Z,100435.02
2018-04-14T05:32:39.272Z,100436.03
2018-04-14T05:35:06.684Z,100446.56
2018-04-14T05:37:34.163Z,100450.56
2018-04-14T05:40:01.511Z,100452.38
2018-04-14T05:42:28.943Z,100454.45
2018-04-14T05:44:56.354Z,100441.31
2018-04-14T05:47:23.764Z,100459.33
2018-04-14T05:49:51.215Z,100450.91
2018-04-14T05:52:18.618Z,100452.95
2018-04-14T05:54:46.036Z,100456.31
2018-04-14T05:57:13.483Z,100456.86
2018-04-14T05:59:40.901Z,100457.12
2018-04-14T06:02:08.319Z,100463.69
2018-04-14T06:04:35.752Z,100478.07
2018-04-14T06:07:03.196Z,100478.47
2018-04-14T06:09:30.608Z,100485.29
2018-04-14T06:11:58.149Z,100478.84
2018-04-14T06:14:25.565Z,100480.14
2018-04-14T06:16:53.006Z,100484.08
2018-04-14T06:19:20.446Z,100488.28
2018-04-14T06:21:47.859Z,100493.36
2018-04-14T06:24:15.295Z,100492.20
2018-04-14T06:26:42.836Z,100501.09
2018-04-14T06:29:10.296Z,100499.41
2018-04-14T06:31:37.708Z,100508.36
2018-04-14T06:34:05.135Z,100508.02
2018-04-14T06:36:32.548Z,100517.41
2018-04-14T06:39:00.317Z,100520.14
2018-04-14T06:41:27.729Z,100526.64
2018-04-14T06:43:55.143Z,100526.11
2018-04-14T06:46:22.617Z,100537.48
2018-04-14T06:48:50.012Z,100542.64
2018-04-14T06:51:17.433Z,100549.00
2018-04-14T06:53:45.236Z,100539.97
2018-04-14T06:56:12.648Z,100550.44
2018-04-14T06:58:40.071Z,100547.19
2018-04-14T07:01:07.495Z,100552.16
2018-04-14T07:03:34.932Z,100549.73
2018-04-14T07:06:02.364Z,100531.55
2018-04-14T07:08:29.776Z,100537.25
2018-04-14T07:10:57.221Z,100543.64
2018-04-14T07:13:24.645Z,100546.27
2018-04-14T07:15:52.085Z,100545.51
2018-04-14T07:18:19.517Z,100558.50
2018-04-14T07:20:47.108Z,100553.02
2018-04-14T07:23:14.512Z,100559.11
2018-04-14T07:25:41.920Z,100557.80
2018-04-14T07:28:09.360Z,100555.19
2018-04-14T07:30:37.066Z,100559.25
2018-04-14T07:33:04.500Z,100557.93
2018-04-14T07:35:32.825Z,100555.14
2018-04-14T07:38:00.252Z,100557.12
2018-04-14T07:40:27.672Z,100554.02
2018-04-14T07:42:55.109Z,100556.22
2018-04-14T07:45:22.532Z,100560.53
2018-04-14T07:47:49.960Z,100561.28
2018-04-14T07:50:17.380Z,100559.14
2018-04-14T07:52:44.839Z,100571.70
2018-04-14T07:55:12.293Z,100572.58
2018-04-14T07:57:39.741Z,100570.58
2018-04-14T08:00:07.147Z,100579.28
2018-04-14T08:02:34.763Z,100580.35
2018-04-14T08:05:02.181Z,100574.29
2018-04-14T08:07:29.605Z,100573.13
2018-04-14T08:09:57.065Z,100580.13
2018-04-14T08:12:24.476Z,100582.92
2018-04-14T08:14:51.968Z,100584.12
2018-04-14T08:17:19.423Z,100595.25
2018-04-14T08:19:48.389Z,100590.92
2018-04-14T08:22:16.174Z,100593.45
2018-04-14T08:24:43.687Z,100596.20
2018-04-14T08:27:11.072Z,100600.06
2018-04-14T08:29:38.499Z,100609.20
2018-04-14T08:32:05.905Z,100603.67
2018-04-14T08:34:33.335Z,100600.56
2018-04-14T08:37:00.745Z,100608.04
2018-04-14T08:39:28.171Z,100608.02
2018-04-14T08:41:55.610Z,100614.16
2018-04-14T08:44:23.210Z,100609.55
2018-04-14T08:46:51.651Z,100622.22
2018-04-14T08:49:19.062Z,100621.84
2018-04-14T08:51:46.477Z,100628.55
2018-04-14T08:54:13.907Z,100626.52
2018-04-14T08:56:41.357Z,100634.94
2018-04-14T08:59:08.776Z,100639.83
2018-04-14T09:01:36.200Z,100639.88
2018-04-14T09:04:03.628Z,100645.55
2018-04-14T09:06:31.965Z,100648.11
2018-04-14T09:08:59.375Z,100654.80
2018-04-14T09:11:27.441Z,100649.38
2018-04-14T09:13:55.229Z,100654.66
2018-04-14T09:16:22.657Z,100650.85
2018-04-14T09:18:50.372Z,100655.98
2018-04-14T09:21:17.931Z,100646.09
2018-04-14T09:23:45.341Z,100651.84
2018-04-14T09:26:12.819Z,100657.02
2018-04-14T09:28:40.343Z,100649.63
2018-04-14T09:31:07.760Z,100651.92
2018-04-14T09:33:35.169Z,100647.00
2018-04-14T09:36:04.003Z,100658.63
2018-04-14T09:38:31.408Z,100653.77
2018-04-14T09:40:58.827Z,100650.21
2018-04-14T09:43:26.429Z,100651.55
2018-04-14T09:45:53.974Z,100648.91
2018-04-14T09:48:22.636Z,100646.95
2018-04-14T09:50:50.060Z,100646.66
2018-04-14T09:53:18.248Z,100660.20
2018-04-14T09:55:45.689Z,100654.36
2018-04-14T09:58:13.123Z,100652.20
2018-04-14T10:00:46.326Z,100649.71
2018-04-14T10:03:19.471Z,100647.54
2018-04-14T10:05:47.596Z,100652.16
2018-04-14T10:08:14.996Z,100656.58
2018-04-14T10:10:42.452Z,100649.05
2018-04-14T10:13:09.851Z,100649.70
2018-04-14T10:15:37.288Z,100651.78
2018-04-14T10:18:04.696Z,100655.61
2018-04-14T10:20:32.104Z,100648.68
2018-04-14T10:22:59.544Z,100648.33
2018-04-14T10:25:26.992Z,100653.74
2018-04-14T10:27:54.411Z,100646.94
2018-04-14T10:30:21.856Z,100651.39
2018-04-14T10:32:49.512Z,100650.95
2018-04-14T10:35:16.940Z,100650.81
2018-04-14T10:37:44.553Z,100655.24
2018-04-14T10:40:11.912Z,100657.59
2018-04-14T10:42:39.320Z,100652.64
2018-04-14T10:45:06.754Z,100643.70
2018-04-14T10:47:34.530Z,100641.82
2018-04-14T10:50:01.967Z,100657.78
2018-04-14T10:52:29.366Z,100652.34
2018-04-14T10:54:56.811Z,100654.09
2018-04-14T10:57:24.232Z,100658.27
2018-04-14T10:59:51.655Z,100656.17
2018-04-14T11:02:19.079Z,100659.82
2018-04-14T11:04:46.504Z,100659.66
2018-04-14T11:07:13.917Z,100658.21
2018-04-14T11:09:41.345Z,100657.92
2018-04-14T11:12:08.760Z,100663.66
2018-04-14T11:14:36.176Z,100652.81
2018-04-14T11:17:03.628Z,100660.50
2018-04-14T11:19:31.042Z,100649.83
2018-04-14T11:21:58.500Z,100666.38
2018-04-14T11:24:25.922Z,100659.05
2018-04-14T11:26:53.368Z,100651.13
2018-04-14T11:29:20.791Z,100658.62
2018-04-14T11:31:48.460Z,100661.05
2018-04-14T11:34:15.868Z,100660.84
2018-04-14T11:36:43.288Z,100658.73
2018-04-14T11:39:10.703Z,100668.73
2018-04-14T11:41:38.135Z,100668.55
2018-04-14T11:44:05.549Z,100673.86
2018-04-14T11:46:32.961Z,100667.87
2018-04-14T11:49:00.392Z,100671.77
2018-04-14T11:51:27.807Z,100676.92
2018-04-14T11:53:55.224Z,100675.91
2018-04-14T11:56:22.669Z,100680.61
2018-04-14T11:58:50.077Z,100690.66
2018-04-14T12:01:17.483Z,100699.61
2018-04-14T12:03:45.013Z,100693.95
2018-04-14T12:06:12.384Z,100695.72
2018-04-14T12:08:39.800Z,100704.74
2018-04-14T12:11:07.245Z,100705.11
2018-04-14T12:13:34.660Z,100708.35
2018-04-14T12:16:02.148Z,100708.92
2018-04-14T12:18:29.576Z,100711.14
2018-04-14T12:20:57.000Z,100703.52
2018-04-14T12:23:24.463Z,100698.91
2018-04-14T12:25:51.917Z,100704.34
2018-04-14T12:28:19.732Z,100704.34
2018-04-14T12:30:47.124Z,100706.95
2018-04-14T12:33:14.544Z,100704.38
2018-04-14T12:35:42.142Z,100709.98
2018-04-14T12:38:09.636Z,100713.56
2018-04-14T12:40:37.085Z,100712.95
2018-04-14T12:43:04.537Z,100716.59
2018-04-14T12:45:32.699Z,100713.02
2018-04-14T12:48:00.138Z,100711.83
2018-04-14T12:50:27.552Z,100708.30
2018-04-14T12:52:54.976Z,100700.13
2018-04-14T12:55:22.391Z,100706.91
2018-04-14T12:57:51.457Z,100708.89
2018-04-14T13:00:18.873Z,100713.83
2018-04-14T13:02:46.275Z,100718.09
2018-04-14T13:05:14.502Z,100706.59
2018-04-14T13:07:41.936Z,100707.63
2018-04-14T13:10:09.361Z,100712.00
2018-04-14T13:12:36.805Z,100708.20
2018-04-14T13:15:04.216Z,100704.81
2018-04-14T13:17:31.946Z,100705.35
2018-04-14T13:19:59.353Z,100713.11
2018-04-14T13:22:26.821Z,100710.74
2018-04-14T13:24:54.399Z,100706.17
2018-04-14T13:27:21.799Z,100705.60
2018-04-14T13:29:49.215Z,100703.81
2018-04-14T13:32:16.908Z,100707.16
2018-04-14T13:34:44.335Z,100705.75
2018-04-14T13:37:11.745Z,100710.72
2018-04-14T13:39:39.240Z,100710.12
2018-04-14T13:42:06.655Z,100708.75
2018-04-14T13:44:34.071Z,100714.47
2018-04-14T13:47:01.491Z,100711.94
2018-04-14T13:49:28.928Z,100705.42
2018-04-14T13:51:56.402Z,100702.26
2018-04-14T13:54:23.799Z,100705.02
2018-04-14T13:56:51.212Z,100694.67
2018-04-14T13:59:18.628Z,100698.38
2018-04-14T14:01:46.195Z,100699.04
2018-04-14T14:04:13.632Z,100696.50
2018-04-14T14:06:41.124Z,100698.48
2018-04-14T14:09:08.530Z,100695.71
2018-04-14T14:11:35.948Z,100700.89
2018-04-14T14:14:03.405Z,100707.27
2018-04-14T14:16:30.823Z,100710.44
2018-04-14T14:18:58.400Z,100707.38
2018-04-14T14:21:25.907Z,100715.74
2018-04-14T14:23:53.367Z,100704.48
2018-04-14T14:26:20.763Z,100710.30
2018-04-14T14:28:48.244Z,100699.17
2018-04-14T14:31:15.727Z,100704.28
2018-04-14T14:33:43.163Z,100704.27
2018-04-14T14:36:10.596Z,100710.27
2018-04-14T14:38:38.047Z,100709.61
2018-04-14T14:41:05.544Z,100699.27
2018-04-14T14:43:32.962Z,100702.13
2018-04-14T14:46:00.381Z,100693.08
2018-04-14T14:48:27.861Z,100711.56
2018-04-14T14:50:55.423Z,100716.33
2018-04-14T14:53:22.835Z,100716.31
2018-04-14T14:55:50.245Z,100710.10
2018-04-14T14:58:17.692Z,100702.16
2018-04-14T15:00:45.105Z,100698.55
2018-04-14T15:03:12.557Z,100698.07
2018-04-14T15:05:39.975Z,100700.94
2018-04-14T15:08:07.392Z,100700.76
2018-04-14T15:10:34.830Z,100704.28
2018-04-14T15:13:02.285Z,100700.91
2018-04-14T15:15:29.791Z,100703.41
2018-04-14T15:17:57.232Z,100704.27
2018-04-14T15:20:24.641Z,100690.81
2018-04-14T15:22:52.074Z,100696.75
2018-04-14T15:25:19.514Z,100697.73
2018-04-14T15:27:46.929Z,100685.38
2018-04-14T15:30:14.349Z,100688.84
2018-04-14T15:32:41.772Z,100692.16
2018-04-14T15:35:09.184Z,100684.98
2018-04-14T15:37:36.612Z,100684.06
2018-04-14T15:40:04.016Z,100685.31
2018-04-14T15:42:31.460Z,100686.19
2018-04-14T15:44:58.877Z,100680.87
2018-04-14T15:47:26.288Z,100673.84
2018-04-14T15:49:53.710Z,100674.10
2018-04-14T15:52:21.116Z,100669.67
2018-04-14T15:54:48.560Z,100674.91
2018-04-14T15:57:15.963Z,100670.81
2018-04-14T15:59:43.533Z,100668.31
2018-04-14T16:02:10.943Z,100673.55
2018-04-14T16:04:38.422Z,100672.34
2018-04-14T16:07:05.798Z,100667.52
2018-04-14T16:09:33.208Z,100665.79
2018-04-14T16:12:00.639Z,100668.20
2018-04-14T16:14:28.049Z,100671.35
2018-04-14T16:16:55.461Z,100674.86
2018-04-14T16:19:22.903Z,100668.19
2018-04-14T16:21:50.355Z,100673.00
2018-04-14T16:24:17.782Z,100679.64
2018-04-14T16:26:45.224Z,100684.21
2018-04-14T16:29:12.652Z,100680.75
2018-04-14T16:31:40.073Z,100675.95
2018-04-14T16:34:07.500Z,100687.83
2018-04-14T16:36:34.956Z,100687.14
2018-04-14T16:39:02.376Z,100689.06
2018-04-14T16:41:29.784Z,100688.80
2018-04-14T16:43:57.198Z,100681.96
2018-04-14T16:46:24.614Z,100685.38
2018-04-14T16:48:52.085Z,100694.06
2018-04-14T16:51:19.468Z,100695.41
2018-04-14T16:53:46.887Z,100692.37
2018-04-14T16:56:14.603Z,100687.99
2018-04-14T16:58:42.009Z,100688.38
2018-04-14T17:01:09.465Z,100687.99
2018-04-14T17:03:36.848Z,100693.37
2018-04-14T17:06:04.257Z,100692.60
2018-04-14T17:08:31.684Z,100694.34
2018-04-14T17:10:59.118Z,100693.26
2018-04-14T17:13:26.551Z,100698.22
2018-04-14T17:15:54.044Z,100700.41
2018-04-14T17:18:21.512Z,100700.91
2018-04-14T17:20:48.927Z,100700.82
2018-04-14T17:23:16.420Z,100710.35
2018-04-14T17:25:43.828Z,100708.09
2018-04-14T17:28:11.275Z,100710.28
2018-04-14T17:30:38.685Z,100718.64
2018-04-14T17:33:06.095Z,100714.66
2018-04-14T17:35:33.624Z,100714.63
2018-04-14T17:38:01.046Z,100717.34
2018-04-14T17:40:28.453Z,100708.23
2018-04-14T17:42:55.985Z,100711.75
2018-04-14T17:45:23.392Z,100710.12
2018-04-14T17:47:50.824Z,100719.77
2018-04-14T17:50:18.300Z,100722.28
2018-04-14T17:52:45.742Z,100725.93
2018-04-14T17:55:13.169Z,100726.05
2018-04-14T17:57:40.583Z,100724.53
2018-04-14T18:00:08.016Z,100717.11
2018-04-14T18:02:35.491Z,100719.19
2018-04-14T18:05:02.891Z,100721.27
2018-04-14T18:07:30.313Z,100731.81
2018-04-14T18:09:57.734Z,100733.28
2018-04-14T18:12:25.135Z,100736.22
2018-04-14T18:14:52.564Z,100740.68
2018-04-14T18:17:20.007Z,100740.43
2018-04-14T18:19:47.428Z,100743.88
2018-04-14T18:22:14.856Z,100734.76
2018-04-14T18:24:42.272Z,100734.89
2018-04-14T18:27:09.696Z,100727.88
2018-04-14T18:29:37.104Z,100729.59
2018-04-14T18:32:04.552Z,100737.25
2018-04-14T18:34:32.007Z,100735.98
2018-04-14T18:36:59.432Z,100737.35
2018-04-14T18:39:26.891Z,100739.62
2018-04-14T18:41:54.308Z,100736.36
2018-04-14T18:44:21.727Z,100743.77
2018-04-14T18:46:49.156Z,100750.46
2018-04-14T18:49:16.572Z,100756.07
2018-04-14T18:51:43.996Z,100756.86
2018-04-14T18:54:11.452Z,100757.73
2018-04-14T18:56:39.154Z,100761.34
2018-04-14T18:59:06.572Z,100758.84
2018-04-14T19:01:33.984Z,100761.69
2018-04-14T19:04:01.441Z,100760.67
2018-04-14T19:06:28.858Z,100761.72
2018-04-14T19:08:56.335Z,100765.34
2018-04-14T19:11:23.772Z,100775.11
2018-04-14T19:13:51.186Z,100773.63
2018-04-14T19:16:18.600Z,100771.78
2018-04-14T19:18:46.032Z,100778.81
2018-04-14T19:21:13.539Z,100774.20
2018-04-14T19:23:40.947Z,100777.47
2018-04-14T19:26:08.381Z,100770.30
2018-04-14T19:28:35.812Z,100771.61
2018-04-14T19:31:03.226Z,100769.94
2018-04-14T19:33:30.676Z,100764.73
2018-04-14T19:35:58.135Z,100762.08
2018-04-14T19:38:25.664Z,100765.22
2018-04-14T19:40:53.380Z,100765.19
2018-04-14T19:43:20.835Z,100763.47
2018-04-14T19:45:48.224Z,100760.14
2018-04-14T19:48:15.648Z,100754.34
2018-04-14T19:50:43.372Z,100757.82
2018-04-14T19:53:10.788Z,100756.34
2018-04-14T19:55:38.203Z,100750.81
2018-04-14T19:58:05.638Z,100751.38
2018-04-14T20:00:33.052Z,100743.45
2018-04-14T20:03:00.476Z,100744.16
2018-04-14T20:05:27.920Z,100734.39
2018-04-14T20:07:55.444Z,100739.89
2018-04-14T20:10:22.900Z,100749.36
2018-04-14T20:12:50.315Z,100749.70
2018-04-14T20:15:17.761Z,100746.88
2018-04-14T20:17:45.181Z,100739.92
2018-04-14T20:20:13.286Z,100745.52
2018-04-14T20:22:41.011Z,100745.02
2018-04-14T20:25:08.482Z,100754.25
2018-04-14T20:27:35.948Z,100750.58
2018-04-14T20:30:03.567Z,100748.75
2018-04-14T20:32:30.985Z,100740.02
2018-04-14T20:34:58.445Z,100745.18
2018-04-14T20:37:26.243Z,100742.92
2018-04-14T20:39:53.668Z,100743.39
2018-04-14T20:42:21.096Z,100744.20
2018-04-14T20:44:48.533Z,100740.22
2018-04-14T20:47:15.944Z,100743.69
2018-04-14T20:49:43.487Z,100747.83
2018-04-14T20:52:10.913Z,100736.11
2018-04-14T20:54:38.361Z,100739.37
2018-04-14T20:57:05.810Z,100734.55
2018-04-14T20:59:33.229Z,100733.87
2018-04-14T21:02:00.658Z,100734.78
2018-04-14T21:04:28.090Z,100734.20
2018-04-14T21:06:55.526Z,100726.28
2018-04-14T21:09:22.940Z,100730.32
2018-04-14T21:11:50.368Z,100729.88
2018-04-14T21:14:17.792Z,100735.50
2018-04-14T21:16:45.211Z,100725.69
2018-04-14T21:19:12.632Z,100713.22
2018-04-14T21:21:40.056Z,100715.51
2018-04-14T21:24:07.465Z,100731.94
2018-04-14T21:26:34.877Z,100727.69
2018-04-14T21:29:02.301Z,100724.65
2018-04-14T21:31:29.716Z,100721.67
2018-04-14T21:33:57.145Z,100721.27
2018-04-14T21:36:24.556Z,100722.98
2018-04-14T21:38:51.980Z,100716.45
2018-04-14T21:41:19.392Z,100724.97
2018-04-14T21:43:46.852Z,100726.12
2018-04-14T21:46:14.272Z,100717.47
2018-04-14T21:48:41.719Z,100712.42
2018-04-14T21:51:09.140Z,100714.00
2018-04-14T21:53:37.464Z,100709.45
2018-04-14T21:56:05.334Z,100714.58
2018-04-14T21:58:32.740Z,100727.00
2018-04-14T22:01:00.164Z,100717.70
2018-04-14T22:03:27.604Z,100711.22
2018-04-14T22:05:55.179Z,100713.25
2018-04-14T22:08:22.589Z,100718.94
2018-04-14T22:10:50.013Z,100717.89
2018-04-14T22:13:17.453Z,100712.20
2018-04-14T22:15:44.868Z,100708.42
2018-04-14T22:18:12.302Z,100708.48
2018-04-14T22:20:39.723Z,100697.13
2018-04-14T22:23:07.123Z,100685.28
2018-04-14T22:25:34.577Z,100687.23
2018-04-14T22:28:01.993Z,100685.47
2018-04-14T22:30:29.412Z,100681.86
2018-04-14T22:32:56.844Z,100691.69
2018-04-14T22:35:24.256Z,100687.71
2018-04-14T22:37:51.697Z,100683.34
2018-04-14T22:40:19.108Z,100677.17
2018-04-14T22:42:46.742Z,100676.56
2018-04-14T22:45:14.148Z,100681.84
2018-04-14T22:47:41.576Z,100676.25
2018-04-14T22:50:09.013Z,100674.50
2018-04-14T22:52:36.432Z,100674.26
2018-04-14T22:55:03.865Z,100669.48
2018-04-14T22:57:31.279Z,100659.78
2018-04-14T22:59:58.701Z,100660.87
2018-04-14T23:02:26.283Z,100649.00
2018-04-14T23:04:53.690Z,100651.28
2018-04-14T23:07:21.118Z,100653.87
2018-04-14T23:09:48.554Z,100650.87
2018-04-14T23:12:15.978Z,100646.73
2018-04-14T23:14:43.402Z,100641.13
2018-04-14T23:17:10.850Z,100640.86
2018-04-14T23:19:38.266Z,100639.94
2018-04-14T23:22:06.591Z,100634.02
2018-04-14T23:24:34.045Z,100640.87
2018-04-14T23:27:01.470Z,100640.39
2018-04-14T23:29:28.900Z,100637.59
2018-04-14T23:31:56.332Z,100634.39
2018-04-14T23:34:23.913Z,100631.80
2018-04-14T23:36:51.471Z,100626.28
2018-04-14T23:39:18.888Z,100629.24
2018-04-14T23:41:46.312Z,100623.16
2018-04-14T23:44:13.732Z,100616.09
2018-04-14T23:46:41.159Z,100611.39
2018-04-14T23:49:08.588Z,100619.70
2018-04-14T23:51:35.999Z,100618.16
2018-04-14T23:54:03.443Z,100598.04
2018-04-14T23:56:30.859Z,100601.77
2018-04-14T23:58:58.396Z,100598.04
